createdAt,value
2022-12-08T00:01:33.659Z,3.46
2022-12-08T00:04:03.396Z,3.39
2022-12-08T00:06:53.871Z,3.37
2022-12-08T00:09:32.087Z,3.42
2022-12-08T00:12:11.674Z,3.36
2022-12-08T00:14:43.195Z,3.39
2022-12-08T00:17:13.571Z,3.47
2022-12-08T00:19:42.921Z,3.39
2022-12-08T00:22:12.463Z,3.37
2022-12-08T00:24:44.157Z,3.37
2022-12-08T00:27:14.180Z,3.45
2022-12-08T00:29:44.810Z,3.33
2022-12-08T00:32:12.665Z,3.35
2022-12-08T00:34:40.323Z,3.36
2022-12-08T00:37:07.660Z,3.51
2022-12-08T00:39:35.359Z,3.47
2022-12-08T00:42:14.427Z,3.55
2022-12-08T00:44:45.050Z,3.46
2022-12-08T00:47:14.361Z,3.57
2022-12-08T00:49:42.633Z,3.40
2022-12-08T00:52:09.910Z,3.37
2022-12-08T00:54:37.643Z,3.37
2022-12-08T00:57:05.038Z,3.47
2022-12-08T00:59:32.673Z,3.34
2022-12-08T01:02:00.237Z,3.40
2022-12-08T01:04:27.850Z,3.53
2022-12-08T01:06:55.374Z,3.46
2022-12-08T01:09:22.918Z,3.53
2022-12-08T01:11:50.503Z,3.45
2022-12-08T01:14:18.138Z,3.44
2022-12-08T01:16:45.786Z,3.43
2022-12-08T01:19:16.206Z,3.54
2022-12-08T01:21:44.918Z,3.49
2022-12-08T01:24:19.199Z,3.55
2022-12-08T01:26:48.191Z,3.62
2022-12-08T01:29:16.210Z,3.48
2022-12-08T01:31:43.881Z,3.66
2022-12-08T01:34:12.814Z,3.56
2022-12-08T01:36:40.572Z,3.61
2022-12-08T01:39:16.116Z,3.61
2022-12-08T01:41:45.402Z,3.50
2022-12-08T01:44:12.862Z,3.56
2022-12-08T01:46:43.735Z,3.53
2022-12-08T01:49:20.093Z,3.39
2022-12-08T01:52:09.697Z,3.36
2022-12-08T01:55:02.428Z,3.44
2022-12-08T01:57:58.832Z,3.51
2022-12-08T02:00:26.695Z,3.52
2022-12-08T02:03:09.212Z,3.47
2022-12-08T02:05:39.975Z,3.42
2022-12-08T02:08:11.404Z,3.46
2022-12-08T02:10:42.204Z,3.52
2022-12-08T02:13:15.655Z,3.48
2022-12-08T02:16:11.464Z,3.48
2022-12-08T02:19:30.185Z,3.39
2022-12-08T02:22:03.710Z,3.47
2022-12-08T02:24:48.387Z,3.52
2022-12-08T02:27:50.242Z,3.49
2022-12-08T02:30:22.939Z,3.45
2022-12-08T02:33:25.693Z,3.47
2022-12-08T02:36:21.457Z,3.29
2022-12-08T02:39:10.192Z,3.39
2022-12-08T02:41:56.563Z,3.28
2022-12-08T02:44:43.938Z,3.22
2022-12-08T02:47:18.334Z,3.24
2022-12-08T02:49:46.198Z,3.15
2022-12-08T02:52:13.383Z,3.23
2022-12-08T02:54:50.200Z,3.16
2022-12-08T02:57:40.409Z,3.12
2022-12-08T03:00:17.178Z,3.24
2022-12-08T03:03:14.347Z,3.20
2022-12-08T03:06:15.265Z,3.36
2022-12-08T03:08:57.350Z,3.37
2022-12-08T03:12:06.162Z,3.23
2022-12-08T03:14:36.795Z,3.20
2022-12-08T03:17:05.745Z,3.16
2022-12-08T03:19:42.017Z,3.13
2022-12-08T03:22:12.175Z,3.09
2022-12-08T03:24:44.786Z,3.09
2022-12-08T03:27:21.059Z,3.03
2022-12-08T03:29:52.208Z,3.02
2022-12-08T03:32:50.431Z,3.17
2022-12-08T03:35:24.671Z,3.07
2022-12-08T03:37:52.275Z,3.24
2022-12-08T03:40:20.872Z,3.20
2022-12-08T03:42:48.429Z,3.25
2022-12-08T03:45:15.728Z,3.33
2022-12-08T03:47:43.750Z,3.32
2022-12-08T03:50:11.791Z,3.12
2022-12-08T03:52:39.328Z,3.12
2022-12-08T03:55:07.498Z,3.12
2022-12-08T03:57:35.192Z,3.33
2022-12-08T04:00:05.400Z,3.23
2022-12-08T04:02:33.077Z,3.29
2022-12-08T04:05:00.402Z,3.21
2022-12-08T04:07:27.852Z,3.36
2022-12-08T04:09:55.075Z,3.20
2022-12-08T04:12:22.576Z,3.14
2022-12-08T04:14:49.808Z,3.31
2022-12-08T04:17:17.277Z,3.19
2022-12-08T04:19:44.626Z,3.35
2022-12-08T04:22:12.100Z,3.25
2022-12-08T04:24:39.309Z,3.34
2022-12-08T04:27:06.850Z,3.29
2022-12-08T04:29:34.063Z,3.37
2022-12-08T04:32:01.620Z,3.32
2022-12-08T04:34:28.809Z,3.37
2022-12-08T04:36:56.312Z,3.20
2022-12-08T04:39:23.610Z,3.25
2022-12-08T04:41:51.171Z,3.16
2022-12-08T04:44:18.515Z,3.19
2022-12-08T04:46:46.057Z,3.26
2022-12-08T04:49:13.425Z,3.17
2022-12-08T04:51:40.926Z,3.13
2022-12-08T04:54:08.114Z,3.07
2022-12-08T04:56:35.658Z,3.19
2022-12-08T04:59:03.568Z,3.00
2022-12-08T05:01:31.138Z,3.10
2022-12-08T05:03:58.421Z,3.14
2022-12-08T05:06:26.040Z,3.12
2022-12-08T05:08:53.289Z,3.09
2022-12-08T05:11:20.901Z,3.19
2022-12-08T05:13:48.280Z,3.18
2022-12-08T05:16:16.891Z,3.25
2022-12-08T05:18:44.369Z,3.21
2022-12-08T05:21:12.459Z,3.24
2022-12-08T05:23:39.708Z,3.27
2022-12-08T05:26:07.493Z,3.22
2022-12-08T05:28:43.384Z,3.21
2022-12-08T05:31:14.743Z,3.20
2022-12-08T05:33:43.144Z,3.28
2022-12-08T05:36:14.646Z,3.17
2022-12-08T05:38:42.764Z,3.03
2022-12-08T05:41:20.123Z,3.01
2022-12-08T05:43:48.283Z,2.98
2022-12-08T05:46:17.388Z,2.95
2022-12-08T05:48:44.829Z,3.01
2022-12-08T05:51:20.611Z,3.09
2022-12-08T05:53:50.260Z,2.96
2022-12-08T05:56:18.645Z,2.90
2022-12-08T05:58:46.316Z,3.04
2022-12-08T06:01:31.782Z,3.00
2022-12-08T06:04:03.311Z,2.91
2022-12-08T06:06:36.324Z,2.88
2022-12-08T06:09:05.853Z,2.89
2022-12-08T06:11:33.932Z,2.81
2022-12-08T06:14:03.291Z,2.82
2022-12-08T06:16:31.408Z,2.87
2022-12-08T06:18:58.877Z,2.74
2022-12-08T06:21:26.489Z,2.69
2022-12-08T06:23:55.203Z,2.78
2022-12-08T06:26:23.174Z,2.88
2022-12-08T06:28:51.264Z,2.92
2022-12-08T06:31:25.907Z,2.85
2022-12-08T06:33:55.238Z,2.73
2022-12-08T06:36:27.907Z,2.83
2022-12-08T06:38:56.197Z,2.74
2022-12-08T06:41:23.927Z,2.69
2022-12-08T06:43:51.445Z,2.87
2022-12-08T06:46:20.877Z,3.09
2022-12-08T06:48:50.661Z,3.12
2022-12-08T06:51:23.497Z,3.17
2022-12-08T06:53:50.971Z,3.22
2022-12-08T06:56:20.207Z,3.20
2022-12-08T06:58:52.343Z,3.28
2022-12-08T07:01:20.844Z,3.37
2022-12-08T07:03:48.483Z,3.33
2022-12-08T07:06:21.648Z,3.28
2022-12-08T07:08:48.935Z,3.37
2022-12-08T07:11:21.554Z,3.49
2022-12-08T07:13:50.633Z,3.59
2022-12-08T07:16:18.654Z,3.76
2022-12-08T07:18:46.059Z,3.81
2022-12-08T07:21:15.138Z,3.94
2022-12-08T07:23:45.831Z,3.90
2022-12-08T07:26:13.711Z,4.02
2022-12-08T07:28:42.781Z,3.94
2022-12-08T07:31:22.812Z,3.98
2022-12-08T07:33:51.629Z,4.28
2022-12-08T07:36:19.708Z,4.57
2022-12-08T07:38:47.962Z,4.76
2022-12-08T07:41:23.658Z,4.83
2022-12-08T07:43:53.596Z,5.03
2022-12-08T07:46:25.041Z,4.96
2022-12-08T07:48:57.117Z,5.00
2022-12-08T07:51:25.397Z,4.83
2022-12-08T07:53:54.893Z,4.87
2022-12-08T07:56:23.790Z,4.72
2022-12-08T07:58:51.274Z,4.72
2022-12-08T08:01:31.309Z,4.75
2022-12-08T08:04:02.134Z,4.79
2022-12-08T08:06:30.664Z,4.80
2022-12-08T08:08:57.971Z,4.73
2022-12-08T08:11:25.732Z,4.99
2022-12-08T08:13:53.440Z,4.98
2022-12-08T08:16:21.528Z,4.90
2022-12-08T08:18:51.016Z,4.95
2022-12-08T08:24:08.506Z,5.07
2022-12-08T08:26:37.680Z,5.08
2022-12-08T08:29:05.013Z,5.30
2022-12-08T08:31:32.675Z,5.46
2022-12-08T08:34:05.089Z,5.59
2022-12-08T08:36:33.175Z,5.62
2022-12-08T08:39:00.459Z,5.79
2022-12-08T08:41:27.968Z,5.78
2022-12-08T08:43:55.872Z,5.89
2022-12-08T08:46:23.507Z,6.13
2022-12-08T08:48:50.787Z,7.44
2022-12-08T08:51:18.286Z,7.80
2022-12-08T08:53:45.814Z,9.19
2022-12-08T08:56:16.813Z,10.40
2022-12-08T08:58:44.062Z,11.73
2022-12-08T09:01:21.614Z,13.40
2022-12-08T09:03:49.544Z,14.16
2022-12-08T09:06:17.629Z,13.50
2022-12-08T09:08:46.594Z,12.08
2022-12-08T09:11:14.384Z,11.36
2022-12-08T09:13:42.252Z,10.44
2022-12-08T09:16:12.248Z,9.85
2022-12-08T09:18:39.644Z,9.96
2022-12-08T09:21:13.203Z,9.63
2022-12-08T09:23:40.687Z,10.06
2022-12-08T09:26:08.719Z,9.42
2022-12-08T09:28:36.225Z,8.91
2022-12-08T09:31:04.265Z,8.29
2022-12-08T09:33:31.689Z,7.87
2022-12-08T09:36:04.164Z,7.83
2022-12-08T09:38:31.753Z,7.83
2022-12-08T09:41:02.523Z,8.02
2022-12-08T09:44:02.778Z,8.50
2022-12-08T09:46:34.657Z,7.98
2022-12-08T09:49:04.827Z,7.96
2022-12-08T09:51:41.766Z,8.36
2022-12-08T09:54:35.675Z,8.88
2022-12-08T09:57:13.875Z,9.12
2022-12-08T09:59:47.851Z,10.36
2022-12-08T10:02:26.003Z,10.39
2022-12-08T10:04:57.672Z,9.31
2022-12-08T10:07:49.453Z,8.37
2022-12-08T10:10:46.871Z,8.13
2022-12-08T10:13:53.328Z,7.62
2022-12-08T10:16:33.068Z,7.21
2022-12-08T10:19:25.406Z,7.09
2022-12-08T10:21:54.336Z,7.10
2022-12-08T10:24:54.576Z,6.89
2022-12-08T10:27:22.704Z,6.78
2022-12-08T10:29:50.269Z,6.75
2022-12-08T10:32:22.285Z,6.73
2022-12-08T10:35:12.895Z,6.69
2022-12-08T10:37:40.399Z,6.82
2022-12-08T10:40:17.962Z,6.63
2022-12-08T10:42:53.556Z,6.57
2022-12-08T10:45:44.228Z,6.49
2022-12-08T10:48:30.760Z,6.31
2022-12-08T10:51:00.690Z,6.35
2022-12-08T10:53:34.043Z,6.22
2022-12-08T10:56:04.572Z,6.01
2022-12-08T10:58:42.618Z,5.97
2022-12-08T11:01:28.205Z,6.00
2022-12-08T11:03:58.857Z,5.95
2022-12-08T11:06:39.352Z,5.90
2022-12-08T11:09:18.656Z,5.92
2022-12-08T11:11:51.826Z,5.95
2022-12-08T11:14:31.966Z,5.74
2022-12-08T11:17:18.082Z,5.75
2022-12-08T11:19:57.072Z,5.75
2022-12-08T11:22:44.869Z,5.82
2022-12-08T11:25:27.344Z,5.74
2022-12-08T11:28:01.430Z,5.70
2022-12-08T11:30:38.315Z,5.59
2022-12-08T11:33:27.847Z,5.45
2022-12-08T11:36:11.540Z,5.45
2022-12-08T11:38:47.721Z,5.60
2022-12-08T11:41:22.908Z,5.55
2022-12-08T11:44:11.463Z,5.57
2022-12-08T11:46:53.088Z,5.79
2022-12-08T11:49:20.829Z,5.57
2022-12-08T11:51:57.692Z,5.37
2022-12-08T11:54:32.858Z,5.38
2022-12-08T11:57:04.077Z,5.27
2022-12-08T11:59:46.333Z,5.20
2022-12-08T12:02:26.510Z,5.21
2022-12-08T12:06:03.358Z,5.24
2022-12-08T12:09:08.019Z,5.28
2022-12-08T12:12:19.379Z,5.18
2022-12-08T12:15:34.554Z,5.20
2022-12-08T12:18:40.344Z,5.06
2022-12-08T12:21:31.989Z,4.88
2022-12-08T12:24:10.951Z,5.04
2022-12-08T12:26:55.449Z,4.76
2022-12-08T12:29:28.650Z,4.62
2022-12-08T12:32:07.329Z,4.64
2022-12-08T12:34:43.690Z,4.55
2022-12-08T12:37:18.978Z,4.61
2022-12-08T12:40:02.270Z,4.52
2022-12-08T12:42:39.884Z,4.51
2022-12-08T12:45:21.959Z,4.62
2022-12-08T12:47:57.314Z,4.56
2022-12-08T12:50:34.023Z,4.41
2022-12-08T12:53:15.707Z,4.60
2022-12-08T12:55:46.521Z,4.40
2022-12-08T12:58:42.632Z,4.40
2022-12-08T13:01:13.031Z,4.57
2022-12-08T13:04:11.061Z,4.52
2022-12-08T13:06:50.596Z,4.55
2022-12-08T13:09:33.575Z,4.49
2022-12-08T13:12:12.671Z,4.57
2022-12-08T13:14:50.612Z,4.69
2022-12-08T13:17:28.813Z,4.70
2022-12-08T13:20:01.536Z,4.73
2022-12-08T13:22:47.058Z,4.76
2022-12-08T13:25:47.267Z,4.78
2022-12-08T13:28:27.591Z,4.87
2022-12-08T13:31:01.084Z,4.91
2022-12-08T13:33:33.462Z,4.87
2022-12-08T13:36:33.158Z,4.72
2022-12-08T13:39:04.835Z,4.91
2022-12-08T13:41:49.438Z,4.80
2022-12-08T13:47:34.467Z,4.58
2022-12-08T13:58:49.697Z,4.59
2022-12-08T14:01:22.536Z,4.52
2022-12-08T14:06:56.908Z,4.61
2022-12-08T14:09:29.184Z,4.50
2022-12-08T14:12:08.299Z,4.62
2022-12-08T14:15:02.410Z,4.71
2022-12-08T14:17:30.604Z,4.70
2022-12-08T14:20:12.579Z,4.67
2022-12-08T14:22:41.493Z,4.73
2022-12-08T14:25:15.861Z,4.74
2022-12-08T14:27:44.192Z,4.79
2022-12-08T14:30:14.739Z,4.82
2022-12-08T14:32:49.012Z,4.87
2022-12-08T14:35:32.315Z,4.89
2022-12-08T14:38:14.243Z,4.95
2022-12-08T14:40:48.088Z,4.97
2022-12-08T14:43:26.009Z,4.95
2022-12-08T14:46:01.590Z,4.92
2022-12-08T14:48:33.615Z,4.88
2022-12-08T14:51:03.888Z,4.81
2022-12-08T14:53:52.496Z,4.84
2022-12-08T14:56:51.922Z,4.86
2022-12-08T14:59:36.871Z,4.76
2022-12-08T15:02:16.081Z,4.69
2022-12-08T15:05:19.206Z,4.68
2022-12-08T15:08:02.613Z,4.60
2022-12-08T15:10:37.822Z,4.66
2022-12-08T15:13:09.852Z,4.65
2022-12-08T15:15:56.313Z,4.57
2022-12-08T15:18:40.833Z,4.59
2022-12-08T15:21:13.048Z,4.68
2022-12-08T15:23:45.635Z,4.67
2022-12-08T15:26:28.153Z,4.54
2022-12-08T15:28:55.853Z,4.58
2022-12-08T15:31:23.593Z,4.60
2022-12-08T15:33:52.110Z,4.65
2022-12-08T15:36:19.585Z,4.55
2022-12-08T15:38:46.773Z,4.56
2022-12-08T15:41:15.318Z,4.57
2022-12-08T15:43:42.791Z,4.68
2022-12-08T15:46:11.088Z,4.75
2022-12-08T15:48:38.520Z,4.76
2022-12-08T15:51:05.996Z,4.72
2022-12-08T15:53:33.157Z,4.72
2022-12-08T15:58:56.515Z,4.69
2022-12-08T16:01:26.239Z,4.65
2022-12-08T16:09:43.451Z,4.61
2022-12-08T16:18:28.830Z,4.62
2022-12-08T16:23:45.637Z,4.60
2022-12-08T16:27:01.210Z,4.54
2022-12-08T16:29:09.031Z,4.52
2022-12-08T16:31:37.417Z,4.59
2022-12-08T16:34:05.000Z,4.55
2022-12-08T16:36:32.255Z,4.48
2022-12-08T16:38:59.936Z,4.47
2022-12-08T16:41:45.642Z,4.50
2022-12-08T16:44:13.146Z,4.41
2022-12-08T16:46:40.643Z,4.51
2022-12-08T16:49:09.663Z,4.54
2022-12-08T16:51:36.993Z,4.59
2022-12-08T16:54:04.780Z,4.64
2022-12-08T16:56:33.389Z,4.73
2022-12-08T16:59:02.626Z,4.78
2022-12-08T17:01:31.418Z,4.78
2022-12-08T17:04:31.052Z,4.78
2022-12-08T17:06:47.113Z,4.73
2022-12-08T17:09:14.735Z,4.63
2022-12-08T17:11:43.714Z,4.54
2022-12-08T17:14:13.219Z,4.51
2022-12-08T17:16:41.384Z,4.45
2022-12-08T17:19:09.312Z,4.45
2022-12-08T17:21:36.631Z,4.52
2022-12-08T17:24:05.044Z,4.43
2022-12-08T17:26:32.492Z,4.34
2022-12-08T17:29:03.817Z,4.26
2022-12-08T17:31:33.233Z,4.35
2022-12-08T17:34:03.287Z,4.34
2022-12-08T17:36:31.104Z,4.25
2022-12-08T17:39:00.981Z,4.22
2022-12-08T17:41:29.740Z,4.32
2022-12-08T17:43:58.084Z,4.34
2022-12-08T17:46:25.467Z,4.32
2022-12-08T17:48:53.663Z,4.33
2022-12-08T17:51:21.277Z,4.25
2022-12-08T17:53:48.757Z,4.28
2022-12-08T17:56:21.701Z,4.34
2022-12-08T17:58:54.203Z,4.35
2022-12-08T18:01:23.985Z,4.27
2022-12-08T18:03:51.928Z,4.27
2022-12-08T18:06:19.433Z,4.34
2022-12-08T18:08:47.878Z,4.39
2022-12-08T18:11:19.209Z,4.44
2022-12-08T18:13:49.342Z,4.49
2022-12-08T18:16:20.153Z,4.56
2022-12-08T18:18:48.535Z,4.57
2022-12-08T18:21:23.030Z,4.55
2022-12-08T18:23:52.027Z,4.62
2022-12-08T18:26:20.639Z,4.65
2022-12-08T18:28:49.146Z,4.66
2022-12-08T18:31:20.844Z,4.67
2022-12-08T18:33:49.920Z,4.72
2022-12-08T18:36:22.681Z,4.74
2022-12-08T18:38:52.664Z,4.79
2022-12-08T18:41:26.083Z,4.80
2022-12-08T18:43:57.111Z,4.81
2022-12-08T18:46:25.795Z,4.81
2022-12-08T18:48:53.785Z,4.87
2022-12-08T18:51:24.240Z,4.84
2022-12-08T18:53:52.901Z,4.89
2022-12-08T18:56:30.103Z,4.88
2022-12-08T18:59:03.913Z,4.97
2022-12-08T19:01:37.522Z,4.99
2022-12-08T19:06:57.268Z,4.91
2022-12-08T19:09:27.016Z,4.90
2022-12-08T19:11:55.231Z,4.86
2022-12-08T19:14:27.908Z,4.84
2022-12-08T19:16:58.803Z,4.88
2022-12-08T19:19:29.367Z,4.89
2022-12-08T19:21:57.273Z,4.90
2022-12-08T19:24:25.888Z,4.95
2022-12-08T19:26:53.684Z,4.96
2022-12-08T19:29:21.256Z,5.00
2022-12-08T19:31:48.609Z,4.96
2022-12-08T19:34:16.288Z,4.89
2022-12-08T19:36:43.932Z,4.88
2022-12-08T19:39:37.141Z,4.91
2022-12-08T19:42:31.441Z,4.97
2022-12-08T19:45:04.758Z,4.89
2022-12-08T19:47:32.218Z,4.90
2022-12-08T19:50:20.084Z,4.93
2022-12-08T19:52:47.352Z,4.85
2022-12-08T19:55:14.894Z,4.92
2022-12-08T19:57:42.252Z,4.95
2022-12-08T20:00:13.080Z,4.98
2022-12-08T20:02:40.547Z,5.06
2022-12-08T20:05:09.799Z,5.07
2022-12-08T20:07:37.063Z,5.13
2022-12-08T20:10:09.847Z,5.17
2022-12-08T20:12:37.119Z,5.20
2022-12-08T20:15:05.230Z,5.25
2022-12-08T20:17:32.529Z,5.25
2022-12-08T20:20:05.323Z,5.23
2022-12-08T20:22:34.554Z,5.21
2022-12-08T20:25:03.121Z,5.23
2022-12-08T20:27:30.520Z,5.16
2022-12-08T20:29:58.005Z,5.18
2022-12-08T20:32:25.290Z,5.16
2022-12-08T20:34:52.846Z,5.20
2022-12-08T20:37:20.264Z,5.19
2022-12-08T20:39:47.766Z,5.26
2022-12-08T20:42:15.177Z,5.27
2022-12-08T20:44:44.504Z,5.24
2022-12-08T20:47:13.708Z,5.26
2022-12-08T20:49:41.489Z,5.28
2022-12-08T20:52:09.195Z,5.26
2022-12-08T20:54:38.132Z,5.28
2022-12-08T20:57:05.762Z,5.28
2022-12-08T20:59:33.694Z,5.33
2022-12-08T21:02:01.297Z,5.35
2022-12-08T21:04:29.391Z,5.40
2022-12-08T21:06:56.952Z,5.44
2022-12-08T21:09:24.789Z,5.44
2022-12-08T21:11:52.114Z,5.48
2022-12-08T21:14:19.703Z,5.52
2022-12-08T21:16:47.360Z,5.54
2022-12-08T21:19:15.463Z,5.51
2022-12-08T21:21:42.825Z,5.53
2022-12-08T21:24:10.966Z,5.55
2022-12-08T21:26:38.595Z,5.50
2022-12-08T21:29:06.359Z,5.47
2022-12-08T21:31:33.880Z,5.49
2022-12-08T21:34:02.840Z,5.50
2022-12-08T21:36:30.848Z,5.53
2022-12-08T21:39:01.075Z,5.51
2022-12-08T21:41:48.329Z,5.53
2022-12-08T21:44:20.520Z,5.50
2022-12-08T21:46:48.003Z,5.36
2022-12-08T21:49:17.007Z,5.38
2022-12-08T21:51:44.437Z,5.41
2022-12-08T21:54:18.206Z,5.40
2022-12-08T21:56:48.833Z,5.36
2022-12-08T21:59:18.168Z,5.32
2022-12-08T22:01:45.925Z,5.24
2022-12-08T22:04:18.814Z,5.14
2022-12-08T22:06:46.348Z,5.12
2022-12-08T22:09:15.576Z,5.08
2022-12-08T22:11:44.486Z,5.09
2022-12-08T22:14:15.095Z,5.00
2022-12-08T22:16:43.840Z,4.97
2022-12-08T22:19:12.706Z,5.06
2022-12-08T22:21:40.413Z,5.02
2022-12-08T22:24:08.661Z,5.07
2022-12-08T22:26:36.394Z,5.04
2022-12-08T22:29:04.213Z,5.03
2022-12-08T22:31:31.639Z,4.98
2022-12-08T22:34:00.166Z,5.03
2022-12-08T22:36:28.759Z,5.06
2022-12-08T22:38:57.093Z,5.06
2022-12-08T22:41:24.526Z,5.12
2022-12-08T22:43:52.320Z,5.11
2022-12-08T22:46:26.693Z,5.05
2022-12-08T22:48:59.335Z,5.07
2022-12-08T22:51:26.878Z,5.03
2022-12-08T22:53:54.452Z,5.03
2022-12-08T22:56:21.900Z,4.94
2022-12-08T22:58:49.901Z,4.99
2022-12-08T23:01:37.435Z,4.92
2022-12-08T23:04:05.287Z,4.95
2022-12-08T23:06:33.067Z,4.90
2022-12-08T23:09:00.826Z,4.76
2022-12-08T23:11:31.475Z,4.76
2022-12-08T23:14:03.044Z,4.75
2022-12-08T23:16:30.634Z,4.67
2022-12-08T23:18:59.671Z,4.62
2022-12-08T23:21:27.204Z,4.53
2022-12-08T23:23:54.837Z,4.49
2022-12-08T23:26:26.957Z,4.45
2022-12-08T23:28:57.317Z,4.41
2022-12-08T23:31:25.629Z,4.42
2022-12-08T23:33:55.074Z,4.31
2022-12-08T23:36:26.305Z,4.27
2022-12-08T23:38:55.006Z,4.32
2022-12-08T23:41:22.546Z,4.22
2022-12-08T23:43:52.433Z,4.20
2022-12-08T23:46:22.593Z,4.23
2022-12-08T23:48:51.507Z,4.22
2022-12-08T23:51:19.593Z,4.17
2022-12-08T23:53:47.891Z,4.10
2022-12-08T23:56:18.082Z,4.10
2022-12-08T23:58:46.492Z,4.12
